Philo, Illinois
Current Conditions -  °F | °C
As of 5:28 PM on Monday 22 Dec 2014 (Local Time) from KCMI Reporting Station
Light Rain Light Rain  
Wind Chill: 37°   Ceiling: 400
Heat Index: 44°   Visibility: 4mi
Dew Point: 43°   Wind: 16mph
Humidity: 96%   Direction: 130°SE
Pressure: 29.62"   Gusts: NA
Location:  40.01°N, 88.16°W
Report Text: KCMI 222328Z 13014KT 4SM -RA BR OVC004 07/06 A2962 RMK AO2 CIG 003V008 P0002 T00670061
Loading
Personal Weather Stations






























Interactive Weather Map New forecast layout! Learn more

10-Day Weather Forecast

Advertisements
Track Severe Weather on mobile